Time;durP1;ratioP1;P1;durP2;ratioP2;P2;SDS_P1;SDS_P2;PMS_P1;PMS_P2;Temp;Humidity;BMP_temperature;BMP_pressure;BME280_temperature;BME280_humidity;BME280_pressure;Samples;Min_cycle;Max_cycle;Signal;HPM_P1;HPM_P2
2022/08/03 00:00:54;;;;;;;6.72;2.33;;;;;;;26.80;36.00;101310.91;5028293;27;96919;-70
2022/08/03 00:03:21;;;;;;;5.65;2.42;;;;;;;26.74;36.33;101307.94;5028825;27;99150;-68
2022/08/03 00:05:47;;;;;;;5.85;2.28;;;;;;;26.88;35.58;101310.19;5031673;27;98827;-69
2022/08/03 00:08:14;;;;;;;6.45;2.47;;;;;;;26.76;35.64;101308.66;5032489;27;96904;-68
2022/08/03 00:10:40;;;;;;;10.70;2.88;;;;;;;26.74;36.09;101305.22;5028117;27;97137;-68
2022/08/03 00:13:08;;;;;;;8.32;2.85;;;;;;;26.58;37.17;101316.69;5030291;27;96893;-68
2022/08/03 00:15:34;;;;;;;6.15;2.75;;;;;;;26.66;37.09;101307.78;5022983;27;99261;-69
2022/08/03 00:18:01;;;;;;;5.10;2.67;;;;;;;26.65;36.60;101308.81;5025381;27;98958;-68
2022/08/03 00:20:28;;;;;;;5.68;2.60;;;;;;;26.32;37.45;101307.41;5033066;27;96931;-69
2022/08/03 00:22:54;;;;;;;5.88;2.80;;;;;;;26.49;36.92;101310.25;5027843;27;99463;-69
2022/08/03 00:25:20;;;;;;;6.20;2.90;;;;;;;26.37;37.38;101302.41;5030394;27;99119;-70
2022/08/03 00:27:47;;;;;;;7.15;2.30;;;;;;;26.63;36.79;101298.13;5029399;27;96944;-69
2022/08/03 00:30:15;;;;;;;6.18;2.65;;;;;;;26.59;37.01;101302.94;5025034;27;97587;-69
2022/08/03 00:32:41;;;;;;;8.65;2.33;;;;;;;26.76;36.68;101295.09;5027811;27;99028;-70
2022/08/03 00:35:08;;;;;;;8.40;2.55;;;;;;;26.90;35.42;101294.69;5023399;27;99052;-70
2022/08/03 00:37:35;;;;;;;5.40;2.72;;;;;;;26.72;34.51;101289.09;5026538;27;96862;-69
2022/08/03 00:40:01;;;;;;;6.25;2.20;;;;;;;26.80;34.14;101289.22;5031062;27;97852;-69
2022/08/03 00:42:27;;;;;;;4.10;2.55;;;;;;;27.00;34.33;101287.34;5027026;27;99092;-69
2022/08/03 00:44:54;;;;;;;8.52;2.30;;;;;;;27.01;33.76;101285.50;5026866;27;101193;-69
2022/08/03 00:47:21;;;;;;;3.30;1.90;;;;;;;27.04;33.79;101287.94;5030423;27;96808;-69
2022/08/03 00:49:48;;;;;;;5.25;2.03;;;;;;;26.98;33.77;101288.53;5025050;27;98384;-69
2022/08/03 00:52:15;;;;;;;5.15;2.30;;;;;;;27.01;33.63;101288.22;5032622;27;97884;-70
2022/08/03 00:54:42;;;;;;;4.50;2.33;;;;;;;27.15;33.80;101287.75;5032863;27;99332;-69
2022/08/03 00:57:08;;;;;;;4.70;2.45;;;;;;;26.87;33.99;101281.38;5031600;27;97142;-69
2022/08/03 00:59:37;;;;;;;5.53;2.10;;;;;;;27.05;33.70;101279.63;5038887;27;97391;-70
2022/08/03 01:02:03;;;;;;;4.97;2.00;;;;;;;26.95;34.43;101278.81;5032814;27;99187;-69
2022/08/03 01:04:31;;;;;;;7.07;2.55;;;;;;;27.08;33.73;101282.06;5037372;27;98091;-70
2022/08/03 01:07:05;;;;;;;8.20;2.40;;;;;;;27.06;34.32;101275.91;5031408;27;96752;-69
2022/08/03 01:09:39;;;;;;;6.60;2.22;;;;;;;26.88;35.18;101280.38;5029682;27;97218;-72
2022/08/03 01:12:14;;;;;;;5.03;2.35;;;;;;;26.87;34.95;101281.38;5029697;27;99208;-69
2022/08/03 01:14:45;;;;;;;3.00;2.15;;;;;;;26.98;35.03;101277.69;5029841;27;101589;-69
2022/08/03 01:17:16;;;;;;;6.32;2.20;;;;;;;27.02;33.95;101268.22;5033073;27;97404;-70
2022/08/03 01:19:50;;;;;;;3.83;2.20;;;;;;;26.76;34.21;101265.28;5033649;27;96810;-70
2022/08/03 01:22:32;;;;;;;3.60;1.98;;;;;;;26.90;34.29;101264.84;5031479;27;98928;-69
2022/08/03 01:25:06;;;;;;;7.93;2.25;;;;;;;26.63;34.25;101267.44;5030050;27;98856;-70
2022/08/03 01:27:46;;;;;;;7.35;2.00;;;;;;;26.72;34.42;101261.97;5027944;28;96853;-71
2022/08/03 01:30:14;;;;;;;4.35;2.10;;;;;;;26.80;34.36;101269.41;5033830;27;96938;-69
2022/08/03 01:32:48;;;;;;;5.50;2.42;;;;;;;26.82;33.98;101261.97;5031149;27;99125;-70
2022/08/03 01:35:17;;;;;;;3.67;2.03;;;;;;;26.76;34.03;101252.59;5026863;27;99258;-71
2022/08/03 01:37:49;;;;;;;6.43;2.63;;;;;;;26.84;33.77;101260.00;5035912;27;96991;-70
2022/08/03 01:40:18;;;;;;;6.97;2.30;;;;;;;26.71;33.35;101265.72;5030536;27;97383;-70
2022/08/03 01:42:46;;;;;;;5.38;2.25;;;;;;;26.84;33.71;101252.72;5033760;27;98912;-71
2022/08/03 01:45:16;;;;;;;7.70;2.13;;;;;;;26.69;33.46;101248.75;5031758;27;99175;-70
2022/08/03 01:47:45;;;;;;;6.20;2.15;;;;;;;26.98;33.42;101254.09;5029867;28;98659;-71
2022/08/03 01:50:13;;;;;;;4.65;1.80;;;;;;;26.98;33.38;101256.81;5035177;27;97218;-70
2022/08/03 01:52:42;;;;;;;3.17;1.90;;;;;;;26.88;33.10;101255.97;5030765;27;99400;-69
2022/08/03 01:55:10;;;;;;;5.00;2.60;;;;;;;26.91;32.97;101256.53;5028794;27;99076;-69
2022/08/03 01:57:39;;;;;;;10.02;2.22;;;;;;;26.98;33.56;101249.53;5034382;27;96824;-70
2022/08/03 02:00:08;;;;;;;5.10;2.15;;;;;;;27.11;32.87;101251.09;5031380;27;98921;-70
2022/08/03 02:02:38;;;;;;;6.13;2.70;;;;;;;27.09;32.83;101259.38;5030386;27;97916;-70
2022/08/03 02:05:08;;;;;;;6.22;2.53;;;;;;;27.02;33.01;101251.97;5025773;27;97682;-70
2022/08/03 02:07:36;;;;;;;4.95;2.22;;;;;;;27.10;33.40;101258.38;5030034;27;96796;-69
2022/08/03 02:10:05;;;;;;;5.45;2.10;;;;;;;27.11;32.97;101251.91;5028221;27;98079;-69
2022/08/03 02:12:34;;;;;;;7.70;2.50;;;;;;;27.12;33.52;101252.75;5028847;27;98627;-69
2022/08/03 02:15:02;;;;;;;2.38;2.00;;;;;;;27.11;33.61;101248.38;5027448;27;99007;-70
2022/08/03 02:17:29;;;;;;;7.38;2.60;;;;;;;27.11;33.63;101253.78;5034187;27;97067;-69
2022/08/03 02:20:00;;;;;;;5.35;2.17;;;;;;;27.02;33.73;101249.25;5030487;27;96897;-70
2022/08/03 02:22:28;;;;;;;3.97;2.25;;;;;;;27.06;33.58;101248.78;5030585;27;98955;-70
2022/08/03 02:24:55;;;;;;;5.78;2.03;;;;;;;26.96;33.74;101254.28;5025839;27;99047;-69
2022/08/03 02:27:23;;;;;;;6.43;2.78;;;;;;;27.19;33.23;101260.16;5034693;27;97056;-69
2022/08/03 02:29:54;;;;;;;7.63;2.20;;;;;;;27.07;33.19;101252.38;5037273;27;96959;-69
2022/08/03 02:32:28;;;;;;;4.90;2.08;;;;;;;27.10;33.39;101249.38;5026271;27;99031;-69
2022/08/03 02:34:57;;;;;;;3.95;2.20;;;;;;;27.12;33.48;101259.03;5030405;27;100857;-70
2022/08/03 02:37:28;;;;;;;4.90;2.10;;;;;;;26.90;33.94;101254.88;5026122;27;97141;-70
2022/08/03 02:40:01;;;;;;;3.53;2.30;;;;;;;26.95;34.42;101249.84;5027680;27;96959;-71
2022/08/03 02:42:29;;;;;;;6.18;2.53;;;;;;;26.86;34.61;101247.97;5026164;27;97924;-70
2022/08/03 02:44:58;;;;;;;10.38;2.60;;;;;;;26.83;35.36;101255.56;5029547;27;99085;-70
2022/08/03 02:47:27;;;;;;;6.30;2.53;;;;;;;26.62;35.78;101254.88;5028852;28;96871;-69
2022/08/03 02:49:57;;;;;;;4.72;2.42;;;;;;;26.66;36.63;101248.16;5027599;27;97029;-70
2022/08/03 02:52:27;;;;;;;5.72;2.15;;;;;;;26.57;36.83;101252.63;5027592;27;99539;-69
2022/08/03 02:54:57;;;;;;;7.32;2.55;;;;;;;26.52;36.86;101250.31;5031057;27;99166;-70
2022/08/03 02:57:26;;;;;;;7.30;2.22;;;;;;;26.47;36.94;101258.03;5026547;27;98848;-70
2022/08/03 02:59:53;;;;;;;7.80;2.53;;;;;;;26.42;36.76;101254.91;5026166;28;98665;-69
2022/08/03 03:02:21;;;;;;;5.10;2.17;;;;;;;26.47;36.54;101262.59;5026980;27;99493;-70
2022/08/03 03:04:50;;;;;;;4.28;2.53;;;;;;;26.38;36.79;101267.06;5030897;27;98224;-70
2022/08/03 03:07:19;;;;;;;6.78;2.38;;;;;;;26.51;36.86;101264.03;5030345;27;98699;-69
2022/08/03 03:09:47;;;;;;;3.65;2.15;;;;;;;26.46;37.02;101256.31;5033449;27;97139;-69
2022/08/03 03:12:16;;;;;;;4.03;2.17;;;;;;;26.64;36.65;101253.75;5028689;27;99395;-71
2022/08/03 03:14:42;;;;;;;5.53;2.53;;;;;;;26.36;35.58;101260.06;5029484;27;99018;-71
2022/08/03 03:17:10;;;;;;;10.60;2.90;;;;;;;26.63;34.74;101262.88;5027595;28;96782;-73
2022/08/03 03:19:39;;;;;;;8.93;2.47;;;;;;;26.63;34.81;101260.16;5030529;27;98890;-72
2022/08/03 03:22:08;;;;;;;7.00;2.45;;;;;;;26.65;35.05;101268.16;5035717;27;101748;-71
2022/08/03 03:24:37;;;;;;;6.97;2.67;;;;;;;26.41;35.47;101253.22;5024289;27;100442;-69
2022/08/03 03:27:05;;;;;;;6.97;2.40;;;;;;;26.61;34.85;101253.16;5030235;27;97965;-70
2022/08/03 03:29:33;;;;;;;5.80;2.85;;;;;;;26.59;34.64;101256.88;5028426;27;97014;-70
2022/08/03 03:32:00;;;;;;;4.97;2.40;;;;;;;26.73;33.84;101257.41;5028332;27;98919;-71
2022/08/03 03:34:29;;;;;;;5.70;2.35;;;;;;;26.52;33.78;101254.88;5030679;27;98959;-70
2022/08/03 03:36:55;;;;;;;7.35;3.00;;;;;;;26.75;33.87;101264.41;5028436;27;98444;-71
2022/08/03 03:39:22;;;;;;;6.50;2.42;;;;;;;26.59;34.22;101256.03;5032411;27;96919;-71
2022/08/03 03:41:48;;;;;;;4.72;2.65;;;;;;;26.47;34.45;101257.19;5026764;28;99189;-71
2022/08/03 03:44:16;;;;;;;7.07;2.58;;;;;;;26.61;34.05;101261.31;5029294;27;98957;-70
2022/08/03 03:46:43;;;;;;;4.40;2.22;;;;;;;26.77;33.69;101264.28;5031247;27;97451;-71
2022/08/03 03:49:10;;;;;;;2.70;2.15;;;;;;;26.78;34.02;101255.16;5031953;27;96894;-70
2022/08/03 03:51:36;;;;;;;6.75;2.17;;;;;;;26.62;34.12;101254.88;5031640;27;98721;-70
2022/08/03 03:54:04;;;;;;;4.57;2.40;;;;;;;26.70;34.14;101257.72;5027882;27;98261;-70
2022/08/03 03:56:31;;;;;;;6.43;2.72;;;;;;;26.54;34.65;101253.75;5028970;27;97114;-70
2022/08/03 03:58:57;;;;;;;3.53;2.35;;;;;;;26.62;34.47;101254.88;5028329;27;97250;-70
2022/08/03 04:01:25;;;;;;;8.63;2.95;;;;;;;26.51;34.50;101251.34;5030684;27;98902;-70
2022/08/03 04:03:51;;;;;;;5.95;2.42;;;;;;;26.59;34.36;101251.47;5023850;27;98863;-70
2022/08/03 04:11:51;;;;;;;5.18;2.30;;;;;;;26.94;33.62;101249.97;5026882;27;98424;-68
2022/08/03 04:14:22;;;;;;;4.80;2.75;;;;;;;26.92;33.44;101260.97;5030415;27;99148;-69
2022/08/03 04:16:53;;;;;;;6.78;2.50;;;;;;;26.85;34.11;101257.09;5032208;27;96870;-69
2022/08/03 04:19:26;;;;;;;6.18;2.70;;;;;;;26.94;33.61;101255.41;5037027;27;97766;-69
2022/08/03 04:21:58;;;;;;;6.15;2.70;;;;;;;26.88;33.41;101262.25;5029289;27;99003;-70
2022/08/03 04:24:30;;;;;;;8.30;2.60;;;;;;;26.90;33.93;101267.56;5023314;27;98935;-70
2022/08/03 04:26:59;;;;;;;4.50;2.70;;;;;;;27.03;33.68;101262.66;5023396;27;98703;-69
2022/08/03 04:29:26;;;;;;;5.30;2.90;;;;;;;26.88;34.09;101261.38;5026265;27;96913;-69
2022/08/03 04:31:57;;;;;;;6.82;2.80;;;;;;;26.92;34.13;101254.69;5029958;27;99658;-69
2022/08/03 04:34:23;;;;;;;5.68;2.60;;;;;;;26.91;34.53;101259.25;5028216;27;98965;-71
2022/08/03 04:36:53;;;;;;;5.95;2.92;;;;;;;26.93;34.16;101270.81;5032438;27;97540;-70
2022/08/03 04:39:25;;;;;;;5.78;2.97;;;;;;;26.90;34.04;101270.28;5030010;27;97419;-69
2022/08/03 04:41:54;;;;;;;5.13;2.85;;;;;;;27.14;33.91;101267.91;5027139;27;99332;-70
2022/08/03 04:44:23;;;;;;;6.68;2.80;;;;;;;27.11;34.18;101273.59;5034415;27;99509;-71
2022/08/03 04:46:50;;;;;;;5.70;2.30;;;;;;;27.17;34.31;101267.63;5026104;27;98251;-70
2022/08/03 04:49:19;;;;;;;7.15;2.85;;;;;;;27.15;33.53;101271.47;5037665;27;96958;-70
2022/08/03 04:51:46;;;;;;;7.47;2.70;;;;;;;27.37;33.27;101265.66;5029983;27;100252;-70
2022/08/03 04:54:14;;;;;;;10.63;5.57;;;;;;;27.38;33.75;101276.34;5031873;27;99150;-70
2022/08/03 04:56:41;;;;;;;8.80;4.32;;;;;;;27.41;33.81;101274.34;5032455;27;96745;-69
2022/08/03 04:59:07;;;;;;;6.47;2.58;;;;;;;27.52;33.24;101271.47;5037130;27;96843;-70
2022/08/03 05:01:34;;;;;;;8.98;2.65;;;;;;;27.46;32.50;101278.31;5032794;27;99389;-69
2022/08/03 05:04:00;;;;;;;5.30;2.42;;;;;;;27.62;32.31;101278.56;5033392;27;99716;-70
2022/08/03 05:06:28;;;;;;;8.88;3.42;;;;;;;27.55;32.84;101282.88;5033697;27;96784;-70
2022/08/03 05:08:55;;;;;;;3.97;2.60;;;;;;;27.38;32.89;101276.34;5035254;27;97596;-70
2022/08/03 05:11:21;;;;;;;7.00;3.00;;;;;;;27.56;33.18;101275.59;5031904;27;99121;-70
2022/08/03 05:13:48;;;;;;;7.30;2.55;;;;;;;27.69;32.66;101274.25;5034876;27;99257;-70
2022/08/03 05:16:15;;;;;;;9.43;2.90;;;;;;;28.00;32.24;101280.16;5032166;27;97365;-70
2022/08/03 05:18:42;;;;;;;7.32;3.05;;;;;;;27.98;32.30;101284.88;5038187;27;98571;-70
2022/08/03 05:21:09;;;;;;;9.68;2.90;;;;;;;28.10;32.13;101283.66;5032552;27;97767;-69
2022/08/03 05:23:37;;;;;;;9.38;2.50;;;;;;;27.99;31.54;101285.75;5035501;27;98812;-70
2022/08/03 05:26:03;;;;;;;5.22;2.53;;;;;;;28.25;31.25;101286.72;5029116;27;97040;-69
2022/08/03 05:28:30;;;;;;;5.28;2.28;;;;;;;28.35;30.99;101282.06;5031041;27;96963;-69
2022/08/03 05:30:57;;;;;;;4.30;2.33;;;;;;;28.51;30.76;101286.78;5029936;27;99061;-70
2022/08/03 05:33:23;;;;;;;4.90;2.25;;;;;;;28.26;31.08;101288.44;5019742;27;98840;-70
2022/08/03 05:35:50;;;;;;;9.48;2.35;;;;;;;28.65;30.56;101283.50;5027929;27;97263;-70
2022/08/03 05:38:16;;;;;;;5.47;2.38;;;;;;;28.68;30.63;101280.47;5028112;27;101228;-70
2022/08/03 05:40:44;;;;;;;8.07;2.47;;;;;;;28.88;30.59;101281.97;5032688;27;98244;-70
2022/08/03 05:43:10;;;;;;;4.40;2.78;;;;;;;28.91;30.66;101284.41;5025080;27;99405;-70
2022/08/03 05:45:38;;;;;;;5.97;2.22;;;;;;;29.03;31.29;101286.84;5028190;27;97043;-70
2022/08/03 05:48:04;;;;;;;6.53;2.47;;;;;;;29.20;31.34;101294.09;5028146;27;98203;-70
2022/08/03 05:50:31;;;;;;;10.57;2.70;;;;;;;29.33;31.06;101289.06;5030393;27;99052;-70
2022/08/03 05:52:58;;;;;;;7.30;2.80;;;;;;;29.42;30.63;101290.81;5022890;27;99553;-72
2022/08/03 05:55:25;;;;;;;10.07;3.47;;;;;;;29.11;30.73;101292.34;5028965;27;97173;-71
2022/08/03 05:57:52;;;;;;;13.32;3.20;;;;;;;29.37;30.17;101292.31;5031370;27;96901;-70
2022/08/03 06:00:19;;;;;;;6.00;2.78;;;;;;;29.69;30.35;101301.47;5033804;27;99424;-69
2022/08/03 06:02:45;;;;;;;8.98;2.40;;;;;;;29.32;28.97;101290.94;5028539;27;98454;-70
2022/08/03 06:05:12;;;;;;;7.13;2.53;;;;;;;29.63;28.94;101291.25;5030181;27;98835;-70
2022/08/03 06:07:38;;;;;;;5.55;2.58;;;;;;;29.80;29.16;101302.22;5024083;27;97264;-69
2022/08/03 06:10:06;;;;;;;9.60;2.60;;;;;;;29.82;29.06;101297.44;5024762;27;99384;-70
2022/08/03 06:12:34;;;;;;;6.10;2.35;;;;;;;29.87;29.12;101297.78;5031020;27;99268;-70
2022/08/03 06:15:03;;;;;;;6.32;2.47;;;;;;;29.84;29.58;101301.72;5026903;27;98105;-71
2022/08/03 06:17:30;;;;;;;7.80;2.10;;;;;;;30.01;27.92;101294.44;5031578;27;97148;-70
2022/08/03 06:19:56;;;;;;;7.43;2.25;;;;;;;29.85;28.04;101291.66;5036879;27;99313;-70
2022/08/03 06:22:23;;;;;;;5.55;2.20;;;;;;;30.20;27.60;101294.13;5027872;28;98790;-70
2022/08/03 06:24:49;;;;;;;9.63;2.05;;;;;;;30.15;27.65;101288.34;5028686;27;97004;-71
2022/08/03 06:27:16;;;;;;;8.52;1.83;;;;;;;30.22;27.59;101292.09;5032079;27;97018;-71
2022/08/03 06:29:42;;;;;;;5.75;1.73;;;;;;;30.01;27.58;101295.28;5022900;28;99002;-69
2022/08/03 06:32:10;;;;;;;7.45;1.80;;;;;;;30.40;27.26;101292.78;5029101;28;98078;-69
2022/08/03 06:34:37;;;;;;;5.30;1.90;;;;;;;30.51;27.30;101288.94;5023764;27;97071;-69
2022/08/03 06:37:03;;;;;;;6.45;1.60;;;;;;;30.55;27.04;101290.28;5026456;27;98703;-69
2022/08/03 06:39:33;;;;;;;7.40;2.05;;;;;;;31.03;26.51;101292.09;5020793;27;99486;-68
2022/08/03 06:42:00;;;;;;;5.05;1.75;;;;;;;30.90;26.48;101289.06;5027453;27;99526;-68
2022/08/03 06:44:26;;;;;;;6.00;1.98;;;;;;;30.84;26.66;101292.47;5028449;27;97973;-68
2022/08/03 06:46:53;;;;;;;9.63;1.85;;;;;;;31.13;26.33;101292.78;5034601;27;97657;-68
2022/08/03 06:49:21;;;;;;;6.50;1.75;;;;;;;31.12;26.23;101291.06;5023384;27;99040;-70
2022/08/03 06:51:49;;;;;;;9.98;2.00;;;;;;;31.33;26.47;101289.63;5036867;27;99988;-68
2022/08/03 06:54:16;;;;;;;9.00;1.88;;;;;;;31.58;25.82;101289.34;5027541;27;97222;-70
2022/08/03 06:56:42;;;;;;;5.38;1.90;;;;;;;31.97;25.42;101294.81;5024975;27;97686;-69
2022/08/03 06:59:09;;;;;;;4.60;1.63;;;;;;;31.81;25.44;101296.81;5027651;27;98730;-69
2022/08/03 07:01:35;;;;;;;10.73;1.90;;;;;;;31.89;25.27;101286.69;5024899;27;98926;-68
2022/08/03 07:04:02;;;;;;;5.85;1.40;;;;;;;31.94;25.20;101292.47;5028903;27;97267;-67
2022/08/03 07:06:30;;;;;;;8.90;1.90;;;;;;;31.93;24.53;101293.47;5024816;27;97192;-69
2022/08/03 07:08:56;;;;;;;12.27;2.47;;;;;;;31.94;25.00;101287.00;5026754;27;101728;-68
2022/08/03 07:11:23;;;;;;;11.25;2.22;;;;;;;32.20;24.45;101286.69;5035375;27;98823;-73
2022/08/03 07:13:49;;;;;;;4.82;2.00;;;;;;;32.06;24.94;101287.41;5023916;27;97744;-68
2022/08/03 07:16:16;;;;;;;8.10;1.90;;;;;;;32.36;24.57;101283.78;5029756;27;98695;-68
2022/08/03 07:18:42;;;;;;;3.63;1.27;;;;;;;32.39;24.27;101291.66;5025822;27;100133;-69
2022/08/03 07:21:09;;;;;;;9.68;2.30;;;;;;;32.68;24.11;101295.56;5022401;27;98736;-70
2022/08/03 07:23:37;;;;;;;5.60;1.50;;;;;;;32.65;24.04;101295.88;5021581;27;97771;-68
2022/08/03 07:26:04;;;;;;;10.25;1.77;;;;;;;32.73;24.02;101291.22;5026261;27;97246;-69
2022/08/03 07:28:30;;;;;;;7.13;1.50;;;;;;;32.64;24.15;101295.03;5027536;28;97985;-68
2022/08/03 07:30:58;;;;;;;4.07;1.30;;;;;;;32.99;23.34;101284.47;5029650;27;98002;-69
2022/08/03 07:33:25;;;;;;;9.00;1.27;;;;;;;33.23;23.44;101282.31;5028122;28;97550;-69
2022/08/03 07:35:51;;;;;;;6.07;2.05;;;;;;;33.43;23.38;101285.34;5028722;27;96923;-69
2022/08/03 07:38:18;;;;;;;4.72;1.80;;;;;;;33.24;23.42;101291.38;5030067;27;98911;-68
2022/08/03 07:40:46;;;;;;;5.32;1.50;;;;;;;32.92;24.14;101280.75;5024690;28;98919;-69
2022/08/03 07:43:12;;;;;;;3.58;1.48;;;;;;;33.20;23.55;101290.06;5028536;28;97421;-70
2022/08/03 07:45:39;;;;;;;11.77;1.75;;;;;;;33.28;23.96;101284.47;5026616;27;96900;-68
2022/08/03 07:48:05;;;;;;;5.68;1.40;;;;;;;33.19;23.85;101289.22;5028812;27;99249;-69
2022/08/03 07:50:31;;;;;;;4.88;1.65;;;;;;;33.25;23.98;101289.50;5028733;27;98049;-69
2022/08/03 07:52:58;;;;;;;5.13;1.50;;;;;;;33.15;23.50;101276.91;5027764;27;96882;-69
2022/08/03 07:55:26;;;;;;;6.18;1.42;;;;;;;33.43;23.29;101284.47;5028842;28;96881;-69
2022/08/03 07:58:05;;;;;;;3.72;1.30;;;;;;;33.41;23.26;101283.84;5028119;27;98970;-68
2022/08/03 08:00:31;;;;;;;6.75;1.40;;;;;;;33.56;23.22;101287.38;5023399;28;98937;-69
2022/08/03 08:02:58;;;;;;;2.35;1.20;;;;;;;33.31;22.79;101281.38;5015438;27;97064;-68
2022/08/03 08:05:24;;;;;;;4.60;1.17;;;;;;;33.44;22.93;101287.03;5023601;27;97030;-69
2022/08/03 08:07:51;;;;;;;5.80;1.20;;;;;;;33.44;22.99;101281.56;5027927;27;99627;-68
2022/08/03 08:10:17;;;;;;;10.52;1.30;;;;;;;33.27;23.04;101282.81;5027841;28;98998;-68
2022/08/03 08:12:43;;;;;;;4.75;1.40;;;;;;;33.28;22.87;101292.69;5031688;27;97104;-69
2022/08/03 08:15:11;;;;;;;4.90;1.45;;;;;;;33.21;22.75;101280.81;5032906;27;97121;-68
2022/08/03 08:17:42;;;;;;;3.30;1.20;;;;;;;33.46;22.85;101282.22;5031853;27;98944;-69
2022/08/03 08:20:10;;;;;;;4.50;1.48;;;;;;;33.54;22.78;101287.56;5033742;27;99915;-70
2022/08/03 08:22:36;;;;;;;7.43;4.57;;;;;;;33.48;22.84;101285.59;5032077;27;97937;-70
2022/08/03 08:25:03;;;;;;;6.05;1.52;;;;;;;33.33;22.57;101284.78;5032214;27;96914;-70
2022/08/03 08:27:30;;;;;;;2.60;1.13;;;;;;;33.77;22.73;101290.22;5031176;27;99722;-68
2022/08/03 08:29:56;;;;;;;3.42;1.35;;;;;;;34.00;21.61;101290.09;5034542;27;99193;-69
2022/08/03 08:32:24;;;;;;;4.10;1.20;;;;;;;34.17;21.47;101290.66;5033123;27;97097;-70
2022/08/03 08:34:50;;;;;;;3.20;1.10;;;;;;;33.98;21.39;101289.41;5029753;27;97674;-70
2022/08/03 08:37:17;;;;;;;2.53;1.17;;;;;;;33.92;21.49;101287.44;5034772;27;101718;-69
2022/08/03 08:39:43;;;;;;;2.25;1.25;;;;;;;34.23;21.16;101277.06;5032490;27;98870;-69
2022/08/03 08:42:09;;;;;;;2.70;1.30;;;;;;;34.21;20.95;101279.13;5029981;27;96787;-70
2022/08/03 08:44:36;;;;;;;4.75;1.05;;;;;;;33.90;20.91;101281.31;5031126;27;97216;-70
2022/08/03 08:47:03;;;;;;;8.10;1.45;;;;;;;34.18;21.15;101279.50;5033542;27;98984;-70
2022/08/03 08:49:35;;;;;;;2.33;1.05;;;;;;;34.09;20.83;101280.66;5029420;28;101961;-70
2022/08/03 08:52:04;;;;;;;2.00;1.08;;;;;;;34.12;20.70;101287.66;5033308;27;96839;-71
2022/08/03 08:54:32;;;;;;;5.22;1.10;;;;;;;34.16;20.26;101278.84;5035583;27;97669;-70
2022/08/03 08:57:02;;;;;;;1.52;0.95;;;;;;;34.35;20.20;101280.97;5035228;27;98974;-71
2022/08/03 08:59:32;;;;;;;2.35;1.10;;;;;;;34.36;20.52;101281.81;5031721;27;99042;-71
2022/08/03 09:01:58;;;;;;;4.78;1.20;;;;;;;34.37;20.58;101283.53;5033006;27;96907;-70
2022/08/03 09:04:25;;;;;;;2.53;1.42;;;;;;;34.64;20.37;101274.47;5029586;27;96904;-70
2022/08/03 09:06:53;;;;;;;1.52;1.10;;;;;;;34.51;20.80;101274.38;5029163;27;98928;-71
2022/08/03 09:09:20;;;;;;;6.10;1.20;;;;;;;34.83;20.35;101275.72;5032223;27;97753;-70
2022/08/03 09:11:48;;;;;;;3.00;1.40;;;;;;;34.79;20.08;101269.75;5032262;28;97403;-71
2022/08/03 09:14:15;;;;;;;8.90;2.22;;;;;;;34.87;20.85;101268.75;5028227;27;97384;-71
2022/08/03 09:16:57;;;;;;;6.50;1.70;;;;;;;34.63;20.81;101267.28;5031322;27;98404;-71
2022/08/03 09:19:24;;;;;;;2.38;1.10;;;;;;;34.68;20.16;101263.94;5031914;27;97904;-70
2022/08/03 09:22:08;;;;;;;4.97;1.35;;;;;;;34.65;20.15;101269.84;5030788;27;97549;-71
2022/08/03 09:24:34;;;;;;;4.85;1.40;;;;;;;34.70;20.84;101261.84;5031131;27;96819;-71
2022/08/03 09:27:01;;;;;;;3.67;1.23;;;;;;;34.56;21.10;101254.56;5029460;28;100894;-71
2022/08/03 09:29:31;;;;;;;1.23;1.10;;;;;;;34.53;20.92;101261.28;5030939;27;98924;-70
2022/08/03 09:32:01;;;;;;;3.88;1.77;;;;;;;34.91;20.59;101256.34;5032626;28;97164;-68
2022/08/03 09:34:27;;;;;;;5.97;1.40;;;;;;;34.91;20.98;101253.59;5031601;27;96926;-69
2022/08/03 09:36:56;;;;;;;2.88;1.13;;;;;;;34.90;20.82;101262.88;5032109;28;98057;-68
2022/08/03 09:39:25;;;;;;;8.65;1.65;;;;;;;34.43;20.71;101262.66;5030828;27;98801;-69
2022/08/03 09:42:05;;;;;;;6.40;1.27;;;;;;;34.18;21.20;101254.81;5028729;27;97468;-68
2022/08/03 09:44:35;;;;;;;4.40;1.90;;;;;;;34.24;21.46;101262.31;5030896;28;97396;-68
2022/08/03 09:47:01;;;;;;;4.85;1.30;;;;;;;34.15;21.17;101259.84;5029522;27;98981;-68
2022/08/03 09:49:28;;;;;;;5.40;1.85;;;;;;;34.81;20.84;101258.56;5030635;28;99012;-68
2022/08/03 09:51:56;;;;;;;7.15;1.30;;;;;;;34.59;20.45;101256.91;5032314;27;96901;-68
2022/08/03 09:54:27;;;;;;;3.90;1.20;;;;;;;34.57;20.82;101267.22;5029452;27;98036;-68
2022/08/03 09:56:54;;;;;;;4.72;1.73;;;;;;;34.25;20.83;101258.53;5031992;27;99291;-69
2022/08/03 09:59:24;;;;;;;9.82;2.15;;;;;;;34.26;20.71;101251.13;5031211;27;101427;-69
2022/08/03 10:01:51;;;;;;;3.00;1.70;;;;;;;34.44;20.79;101256.16;5032040;27;97368;-69
2022/08/03 10:04:17;;;;;;;2.85;1.45;;;;;;;34.46;20.91;101251.31;5029905;27;97074;-69
2022/08/03 10:06:45;;;;;;;2.90;1.10;;;;;;;34.28;21.05;101255.38;5030197;27;99007;-68
2022/08/03 10:09:14;;;;;;;2.60;1.20;;;;;;;34.33;21.09;101249.31;5034338;27;99978;-68
2022/08/03 10:11:43;;;;;;;2.78;0.90;;;;;;;34.61;20.76;101246.56;5029743;28;97286;-68
2022/08/03 10:14:17;;;;;;;1.30;1.00;;;;;;;34.65;20.96;101237.75;5028194;27;97440;-68
2022/08/03 10:16:44;;;;;;;2.15;1.15;;;;;;;34.69;21.02;101238.19;5030686;27;99573;-67
2022/08/03 10:19:11;;;;;;;2.22;1.33;;;;;;;34.73;20.82;101234.88;5029140;28;98746;-67
2022/08/03 10:21:39;;;;;;;3.45;1.13;;;;;;;34.68;20.76;101231.00;5030567;27;96809;-67
2022/08/03 10:24:09;;;;;;;5.38;1.38;;;;;;;34.55;20.73;101231.75;5027994;27;97559;-68
2022/08/03 10:26:39;;;;;;;3.55;1.38;;;;;;;34.78;20.65;101226.06;5030389;28;98097;-68
2022/08/03 10:29:18;;;;;;;1.85;1.40;;;;;;;34.80;20.98;101226.69;5031118;27;99457;-69
2022/08/03 10:31:47;;;;;;;2.00;1.27;;;;;;;34.99;20.88;101225.09;5028299;27;96779;-67
2022/08/03 10:34:22;;;;;;;6.05;1.35;;;;;;;34.73;21.09;101223.88;5028390;27;96869;-67
2022/08/03 10:36:49;;;;;;;6.00;1.10;;;;;;;34.68;20.95;101222.75;5031899;27;99174;-66
2022/08/03 10:39:19;;;;;;;4.90;1.30;;;;;;;34.71;20.46;101219.66;5031079;27;96846;-67
2022/08/03 10:41:49;;;;;;;5.82;1.40;;;;;;;34.95;20.58;101221.94;5030412;28;97038;-68
2022/08/03 10:44:18;;;;;;;4.18;1.20;;;;;;;34.85;20.58;101215.97;5030476;27;97268;-67
2022/08/03 10:46:46;;;;;;;1.85;1.20;;;;;;;34.77;20.62;101219.72;5031706;27;102050;-67
2022/08/03 10:49:14;;;;;;;2.72;0.95;;;;;;;34.91;21.08;101215.16;5031148;27;98766;-68
2022/08/03 10:51:41;;;;;;;4.47;1.33;;;;;;;34.80;21.15;101212.94;5028872;28;97935;-67
2022/08/03 10:54:34;;;;;;;6.10;1.20;;;;;;;34.76;20.78;101209.78;5028013;28;97186;-68
2022/08/03 10:59:59;;;;;;;4.70;1.05;;;;;;;34.87;20.69;101208.34;5030403;27;97727;-67
2022/08/03 11:02:58;;;;;;;2.92;0.80;;;;;;;34.81;20.35;101197.34;5032731;27;97057;-68
2022/08/03 11:05:26;;;;;;;3.22;1.10;;;;;;;35.12;20.55;101192.22;5033642;27;96889;-67
2022/08/03 11:08:18;;;;;;;4.22;0.85;;;;;;;34.95;20.73;101194.47;5028815;28;99679;-67
2022/08/03 11:10:44;;;;;;;3.58;1.40;;;;;;;35.03;20.61;101193.47;5029438;27;97628;-68
2022/08/03 11:13:15;;;;;;;7.22;1.35;;;;;;;34.92;20.48;101191.28;5028570;27;97268;-70
2022/08/03 11:15:44;;;;;;;3.55;1.13;;;;;;;35.10;20.36;101191.59;5033976;27;97346;-68
2022/08/03 11:18:11;;;;;;;3.45;1.52;;;;;;;35.20;20.92;101192.06;5029473;27;99246;-67
2022/08/03 11:20:48;;;;;;;5.43;1.00;;;;;;;35.14;20.57;101193.72;5030030;27;99387;-68
2022/08/03 11:23:17;;;;;;;1.92;1.20;;;;;;;35.27;20.45;101192.13;5027627;27;97226;-67
2022/08/03 11:26:08;;;;;;;1.25;1.08;;;;;;;35.06;20.62;101191.13;5030224;27;96832;-67
2022/08/03 11:28:38;;;;;;;2.10;1.38;;;;;;;35.09;20.38;101185.25;5027778;28;99618;-67
2022/08/03 11:31:43;;;;;;;2.00;1.10;;;;;;;35.00;20.09;101186.47;5029074;27;97904;-67
2022/08/03 11:34:11;;;;;;;23.48;2.63;;;;;;;35.12;20.51;101183.97;5024443;27;97064;-67
2022/08/03 11:37:11;;;;;;;2.13;1.10;;;;;;;34.93;20.42;101182.84;5034823;27;97234;-67
2022/08/03 11:39:39;;;;;;;5.05;1.17;;;;;;;35.21;20.31;101185.53;5030512;27;98671;-67